KRK weather

Kraków John Paul II International Airport
Kraków, Lesser Poland, Poland

Public forecast

Using degrees Celsius for public forecast. Weather courtesy of forecast.io.

Current aviation weather report (METAR) for Kraków John Paul II International Airport

Retrieved 2019/11/17 13:30 UTC (19 minutes ago):

EPKK 171330Z 05004KT CAVOK 14/09 Q1014

Aviation forecast (TAF) for Kraków John Paul II International Airport

Retrieved 2019/11/17 15:33 UTC (0 seconds ago):

TAF TAF EPKK 171430Z 1715/1815 05007KT CAVOK